Time;durP1;ratioP1;P1;durP2;ratioP2;P2;SDS_P1;SDS_P2;PMS_P1;PMS_P2;Temp;Humidity;BMP_temperature;BMP_pressure;BME280_temperature;BME280_humidity;BME280_pressure;Samples;Min_cycle;Max_cycle;Signal;HPM_P1;HPM_P2
2021/07/28 00:00:17;;;;;;;15.95;10.55;;;;;;;;;;3550118;39;106878;-63
2021/07/28 00:02:44;;;;;;;13.57;9.65;;;;;;;;;;3550109;39;108098;-63
2021/07/28 00:05:11;;;;;;;13.77;10.57;;;;;;;;;;3550218;39;105239;-62
2021/07/28 00:07:38;;;;;;;14.52;10.13;;;;;;;;;;3550572;39;105692;-66
2021/07/28 00:10:06;;;;;;;14.52;9.77;;;;;;;;;;3550295;39;106806;-67
2021/07/28 00:12:33;;;;;;;15.48;11.50;;;;;;;;;;3550041;39;107138;-67
2021/07/28 00:15:00;;;;;;;16.27;11.73;;;;;;;;;;3550067;39;105199;-67
2021/07/28 00:17:28;;;;;;;12.15;10.18;;;;;;;;;;3550255;39;105589;-64
2021/07/28 00:20:03;;;;;;;12.18;9.10;;;;;;;;;;3550041;39;106985;-67
2021/07/28 00:25:25;;;;;;;9.57;7.97;;;;;;;;;;3550125;39;105324;-65
2021/07/28 00:27:52;;;;;;;12.85;9.75;;;;;;;;;;3550262;39;105158;-65
2021/07/28 00:30:19;;;;;;;11.38;9.25;;;;;;;;;;3540695;39;106890;-69
2021/07/28 00:32:46;;;;;;;12.10;9.43;;;;;;;;;;3550025;39;107551;-68
2021/07/28 00:35:13;;;;;;;13.98;9.50;;;;;;;;;;3550409;39;105311;-68
2021/07/28 00:37:40;;;;;;;9.40;7.25;;;;;;;;;;3550188;39;105281;-68
2021/07/28 00:40:07;;;;;;;9.48;7.53;;;;;;;;;;3549638;39;106890;-65
2021/07/28 00:42:35;;;;;;;12.00;9.00;;;;;;;;;;3550117;39;107421;-68
2021/07/28 00:45:01;;;;;;;8.80;7.07;;;;;;;;;;3550154;39;105387;-64
2021/07/28 00:47:28;;;;;;;9.82;6.97;;;;;;;;;;3549562;39;105272;-67
2021/07/28 00:49:56;;;;;;;10.68;7.90;;;;;;;;;;3549920;39;107082;-65
2021/07/28 00:52:23;;;;;;;12.55;8.57;;;;;;;;;;3549819;39;107816;-65
2021/07/28 00:54:50;;;;;;;11.02;8.00;;;;;;;;;;3550133;39;105162;-66
2021/07/28 00:57:17;;;;;;;7.38;6.18;;;;;;;;;;3550308;39;105248;-66
2021/07/28 00:59:44;;;;;;;10.65;7.90;;;;;;;;;;3550178;39;106920;-63
2021/07/28 01:02:11;;;;;;;9.75;7.72;;;;;;;;;;3549785;39;107541;-68
2021/07/28 01:04:38;;;;;;;8.43;6.90;;;;;;;;;;3549946;39;105218;-66
2021/07/28 01:07:05;;;;;;;10.32;7.13;;;;;;;;;;3550026;39;105225;-64
2021/07/28 01:09:33;;;;;;;11.00;8.70;;;;;;;;;;3549818;39;106927;-66
2021/07/28 01:12:02;;;;;;;9.57;7.65;;;;;;;;;;3549868;39;107713;-68
2021/07/28 01:14:28;;;;;;;8.82;6.68;;;;;;;;;;3550091;39;105406;-63
2021/07/28 01:16:56;;;;;;;11.05;8.52;;;;;;;;;;3550128;39;105170;-66
2021/07/28 01:19:30;;;;;;;11.30;8.75;;;;;;;;;;3549735;39;106886;-67
2021/07/28 01:22:00;;;;;;;9.52;7.35;;;;;;;;;;3549772;39;107553;-66
2021/07/28 01:24:27;;;;;;;12.40;9.35;;;;;;;;;;3549979;39;105205;-67
2021/07/28 01:26:55;;;;;;;12.50;8.85;;;;;;;;;;3549807;39;105160;-64
2021/07/28 01:29:23;;;;;;;10.95;8.10;;;;;;;;;;3549571;39;106850;-65
2021/07/28 01:31:54;;;;;;;11.35;8.52;;;;;;;;;;3549705;39;107508;-68
2021/07/28 01:34:21;;;;;;;10.15;8.10;;;;;;;;;;3549951;39;105140;-68
2021/07/28 01:36:49;;;;;;;8.77;7.68;;;;;;;;;;3549778;39;105725;-63
2021/07/28 01:39:16;;;;;;;9.52;7.68;;;;;;;;;;3549489;39;106910;-68
2021/07/28 01:41:59;;;;;;;9.35;7.20;;;;;;;;;;3549613;39;107501;-65
2021/07/28 01:44:26;;;;;;;8.55;6.97;;;;;;;;;;3549862;39;105262;-71
2021/07/28 01:46:53;;;;;;;8.48;6.13;;;;;;;;;;3549732;39;105192;-69
2021/07/28 01:49:20;;;;;;;7.90;6.03;;;;;;;;;;3549770;39;107011;-65
2021/07/28 01:51:47;;;;;;;7.95;5.72;;;;;;;;;;3549514;39;108094;-66
2021/07/28 01:54:14;;;;;;;9.32;6.65;;;;;;;;;;3549368;39;105551;-67
2021/07/28 01:56:44;;;;;;;8.55;6.07;;;;;;;;;;3549793;39;105136;-69
2021/07/28 01:59:12;;;;;;;6.57;5.07;;;;;;;;;;3551132;39;107439;-65
2021/07/28 02:01:39;;;;;;;7.75;5.85;;;;;;;;;;3550660;39;107609;-63
2021/07/28 02:04:06;;;;;;;7.38;5.60;;;;;;;;;;3550865;39;105567;-65
2021/07/28 02:06:33;;;;;;;7.68;5.85;;;;;;;;;;3550678;39;105289;-64
2021/07/28 02:09:00;;;;;;;7.53;6.00;;;;;;;;;;3551043;39;105831;-67
2021/07/28 02:11:27;;;;;;;7.97;5.40;;;;;;;;;;3550610;39;107808;-66
2021/07/28 02:13:54;;;;;;;8.68;5.40;;;;;;;;;;3551041;39;105281;-65
2021/07/28 02:16:21;;;;;;;6.00;4.97;;;;;;;;;;3550654;39;105396;-64
2021/07/28 02:18:48;;;;;;;4.95;4.32;;;;;;;;;;3550400;39;106936;-67
2021/07/28 02:21:14;;;;;;;6.55;4.97;;;;;;;;;;3550629;39;107432;-66
2021/07/28 02:23:42;;;;;;;5.63;4.75;;;;;;;;;;3550728;39;105205;-70
2021/07/28 02:26:08;;;;;;;6.80;4.45;;;;;;;;;;3550286;39;105740;-64
2021/07/28 02:28:35;;;;;;;6.32;4.55;;;;;;;;;;3550599;39;106806;-68
2021/07/28 02:31:03;;;;;;;5.38;4.32;;;;;;;;;;3550493;39;107433;-66
2021/07/28 02:33:30;;;;;;;5.10;4.35;;;;;;;;;;3550731;39;105530;-66
2021/07/28 02:35:57;;;;;;;4.45;3.80;;;;;;;;;;3550678;39;105271;-70
2021/07/28 02:38:24;;;;;;;4.53;3.95;;;;;;;;;;3550552;39;106868;-67
2021/07/28 02:40:51;;;;;;;5.55;4.43;;;;;;;;;;3550071;39;107472;-66
2021/07/28 02:43:18;;;;;;;5.85;4.82;;;;;;;;;;3550914;39;105187;-69
2021/07/28 02:45:44;;;;;;;5.95;4.10;;;;;;;;;;3551085;39;105149;-67
2021/07/28 02:48:11;;;;;;;6.28;4.57;;;;;;;;;;3550599;39;106774;-66
2021/07/28 02:50:38;;;;;;;5.03;4.15;;;;;;;;;;3550669;39;107527;-65
2021/07/28 02:53:05;;;;;;;5.88;4.45;;;;;;;;;;3550915;39;105166;-71
2021/07/28 02:55:32;;;;;;;5.25;4.75;;;;;;;;;;3550290;39;105235;-63
2021/07/28 02:58:02;;;;;;;5.63;4.20;;;;;;;;;;3550418;39;107542;-65
2021/07/28 03:00:29;;;;;;;4.85;4.32;;;;;;;;;;3550450;39;107464;-68
2021/07/28 03:02:56;;;;;;;5.40;4.40;;;;;;;;;;3550527;39;105399;-62
2021/07/28 03:05:23;;;;;;;7.50;4.68;;;;;;;;;;3550674;39;105476;-64
2021/07/28 03:07:49;;;;;;;4.68;4.00;;;;;;;;;;3550375;39;106878;-66
2021/07/28 03:10:16;;;;;;;6.93;5.30;;;;;;;;;;3550087;39;107394;-65
2021/07/28 03:12:43;;;;;;;5.95;4.97;;;;;;;;;;3550610;39;105315;-66
2021/07/28 03:15:10;;;;;;;6.72;5.55;;;;;;;;;;3550413;39;105262;-69
2021/07/28 03:17:37;;;;;;;5.55;4.35;;;;;;;;;;3550330;39;107494;-65
2021/07/28 03:20:04;;;;;;;7.03;5.22;;;;;;;;;;3550636;39;107448;-66
2021/07/28 03:22:32;;;;;;;6.50;4.47;;;;;;;;;;3550445;39;105321;-66
2021/07/28 03:24:59;;;;;;;5.35;4.85;;;;;;;;;;3550231;39;105235;-66
2021/07/28 03:27:26;;;;;;;5.47;4.22;;;;;;;;;;3550281;39;107425;-64
2021/07/28 03:29:53;;;;;;;5.78;5.13;;;;;;;;;;3550079;39;108300;-68
2021/07/28 03:32:20;;;;;;;5.57;4.80;;;;;;;;;;3550588;39;105170;-67
2021/07/28 03:34:47;;;;;;;6.28;4.50;;;;;;;;;;3550707;39;105153;-65
2021/07/28 03:37:14;;;;;;;6.28;5.53;;;;;;;;;;3550491;39;107103;-66
2021/07/28 03:39:41;;;;;;;5.05;4.40;;;;;;;;;;3540597;39;107491;-65
2021/07/28 03:42:08;;;;;;;5.65;4.32;;;;;;;;;;3550370;39;105149;-65
2021/07/28 03:44:35;;;;;;;5.72;4.50;;;;;;;;;;3550235;39;105307;-68
2021/07/28 03:47:02;;;;;;;7.10;4.40;;;;;;;;;;3550143;39;107224;-67
2021/07/28 03:49:29;;;;;;;5.45;4.07;;;;;;;;;;3550234;39;107469;-68
2021/07/28 03:51:55;;;;;;;5.28;4.13;;;;;;;;;;3550523;39;105601;-64
2021/07/28 03:54:22;;;;;;;5.18;4.28;;;;;;;;;;3550285;39;105270;-63
2021/07/28 03:56:49;;;;;;;4.50;4.10;;;;;;;;;;3550133;39;106812;-68
2021/07/28 03:59:17;;;;;;;3.95;3.60;;;;;;;;;;3549067;39;107447;-66
2021/07/28 04:01:44;;;;;;;4.00;3.50;;;;;;;;;;3547623;39;105277;-66
2021/07/28 04:04:11;;;;;;;4.43;4.03;;;;;;;;;;3541025;39;105378;-64
2021/07/28 04:06:37;;;;;;;4.45;4.05;;;;;;;;;;3545579;39;107033;-65
2021/07/28 04:09:04;;;;;;;4.15;3.75;;;;;;;;;;3550296;39;107421;-69
2021/07/28 04:11:31;;;;;;;5.78;4.30;;;;;;;;;;3540774;39;105575;-68
2021/07/28 04:13:58;;;;;;;5.95;4.07;;;;;;;;;;3540348;39;107608;-65
2021/07/28 04:16:25;;;;;;;4.40;4.00;;;;;;;;;;3540269;39;106836;-67
2021/07/28 04:18:55;;;;;;;5.10;4.60;;;;;;;;;;3542964;39;107633;-69
2021/07/28 04:21:21;;;;;;;4.93;4.43;;;;;;;;;;3543794;39;105267;-68
2021/07/28 04:23:48;;;;;;;5.13;4.28;;;;;;;;;;3540109;39;105559;-63
2021/07/28 04:26:15;;;;;;;5.18;3.60;;;;;;;;;;3542127;39;107171;-64
2021/07/28 04:28:42;;;;;;;4.30;3.90;;;;;;;;;;3548635;39;108715;-67
2021/07/28 04:31:09;;;;;;;4.22;3.83;;;;;;;;;;3547237;39;105522;-66
2021/07/28 04:33:36;;;;;;;3.95;3.45;;;;;;;;;;3549966;39;105164;-66
2021/07/28 04:36:03;;;;;;;7.68;5.88;;;;;;;;;;3542819;39;106884;-66
2021/07/28 04:38:30;;;;;;;16.00;12.57;;;;;;;;;;3539875;39;107516;-68
2021/07/28 04:40:58;;;;;;;17.92;13.77;;;;;;;;;;3545770;39;105555;-68
2021/07/28 04:43:25;;;;;;;23.17;14.13;;;;;;;;;;3549969;39;105169;-62
2021/07/28 04:45:59;;;;;;;16.77;12.75;;;;;;;;;;3549809;39;107665;-62
2021/07/28 04:48:27;;;;;;;17.30;12.77;;;;;;;;;;3549746;39;107531;-61
2021/07/28 04:50:55;;;;;;;16.10;12.65;;;;;;;;;;3549995;39;105310;-63
2021/07/28 04:53:28;;;;;;;14.65;11.80;;;;;;;;;;3549822;39;105418;-63
2021/07/28 04:55:56;;;;;;;14.27;11.88;;;;;;;;;;3549929;39;107144;-63
2021/07/28 04:58:24;;;;;;;16.10;12.40;;;;;;;;;;3549731;39;107445;-62
2021/07/28 05:00:51;;;;;;;14.80;11.85;;;;;;;;;;3549839;39;105234;-62
2021/07/28 05:03:19;;;;;;;15.05;11.55;;;;;;;;;;3549694;39;105254;-62
2021/07/28 05:05:46;;;;;;;13.57;10.30;;;;;;;;;;3540072;39;106819;-59
2021/07/28 05:08:13;;;;;;;14.07;11.07;;;;;;;;;;3538828;39;107447;-53
2021/07/28 05:10:40;;;;;;;13.75;11.60;;;;;;;;;;3539753;39;105366;-58
2021/07/28 05:13:07;;;;;;;12.43;9.50;;;;;;;;;;3539757;39;105150;-58
2021/07/28 05:15:34;;;;;;;10.93;9.10;;;;;;;;;;3539793;39;106833;-57
2021/07/28 05:18:01;;;;;;;10.10;8.60;;;;;;;;;;3539527;39;107449;-57
2021/07/28 05:20:28;;;;;;;10.15;8.48;;;;;;;;;;3539827;39;105191;-57
2021/07/28 05:22:55;;;;;;;10.32;8.30;;;;;;;;;;3539824;39;105398;-57
2021/07/28 05:25:22;;;;;;;8.07;6.88;;;;;;;;;;3539639;39;106728;-54
2021/07/28 05:27:49;;;;;;;8.40;6.93;;;;;;;;;;3539630;39;107385;-56
2021/07/28 05:30:17;;;;;;;7.93;6.50;;;;;;;;;;3539800;39;105204;-56
2021/07/28 05:32:43;;;;;;;7.47;6.68;;;;;;;;;;3530216;39;105346;-55
2021/07/28 05:35:11;;;;;;;6.63;5.65;;;;;;;;;;3539391;39;106751;-56
2021/07/28 05:37:38;;;;;;;7.45;5.93;;;;;;;;;;3539522;39;107502;-57
2021/07/28 05:40:05;;;;;;;6.38;5.70;;;;;;;;;;3539636;39;105487;-56
2021/07/28 05:42:34;;;;;;;7.05;5.18;;;;;;;;;;3539674;39;105365;-54
2021/07/28 05:45:01;;;;;;;6.13;5.28;;;;;;;;;;3539657;39;106869;-54
2021/07/28 05:47:28;;;;;;;5.60;4.80;;;;;;;;;;3539446;39;107511;-56
2021/07/28 05:49:58;;;;;;;7.50;5.38;;;;;;;;;;3539486;39;105353;-59
2021/07/28 05:52:25;;;;;;;5.45;4.55;;;;;;;;;;3530424;39;105384;-56
2021/07/28 05:54:52;;;;;;;5.97;4.63;;;;;;;;;;3539359;39;106841;-57
2021/07/28 05:57:19;;;;;;;5.25;4.15;;;;;;;;;;3538937;39;107511;-56
2021/07/28 05:59:46;;;;;;;5.57;4.90;;;;;;;;;;3539353;39;105314;-55
2021/07/28 06:02:13;;;;;;;5.53;4.30;;;;;;;;;;3539469;39;105544;-56
2021/07/28 06:04:40;;;;;;;4.88;4.38;;;;;;;;;;3539124;39;106892;-56
2021/07/28 06:07:07;;;;;;;6.95;5.28;;;;;;;;;;3539145;39;107078;-57
2021/07/28 06:09:34;;;;;;;7.65;4.80;;;;;;;;;;3539278;39;105431;-56
2021/07/28 06:12:01;;;;;;;7.05;4.95;;;;;;;;;;3539054;39;105295;-57
2021/07/28 06:14:28;;;;;;;4.78;4.28;;;;;;;;;;3539024;39;107073;-57
2021/07/28 06:16:55;;;;;;;7.00;4.45;;;;;;;;;;3538826;39;107591;-55
2021/07/28 06:19:22;;;;;;;5.13;4.43;;;;;;;;;;3540683;39;105466;-57
2021/07/28 06:21:49;;;;;;;6.40;4.00;;;;;;;;;;3542525;39;105543;-58
2021/07/28 06:24:16;;;;;;;7.72;4.35;;;;;;;;;;3540143;39;106831;-59
2021/07/28 06:26:43;;;;;;;5.72;4.40;;;;;;;;;;3541574;39;107554;-58
2021/07/28 06:29:11;;;;;;;4.40;3.97;;;;;;;;;;3541952;39;105425;-59
2021/07/28 06:31:39;;;;;;;5.35;4.20;;;;;;;;;;3532788;39;105822;-59
2021/07/28 06:34:06;;;;;;;6.22;4.50;;;;;;;;;;3541974;39;106887;-58
2021/07/28 06:36:36;;;;;;;5.53;4.43;;;;;;;;;;3541052;39;106884;-56
2021/07/28 06:39:03;;;;;;;6.65;4.28;;;;;;;;;;3542350;39;105801;-57
2021/07/28 06:41:30;;;;;;;6.00;4.00;;;;;;;;;;3542632;39;105495;-59
2021/07/28 06:43:57;;;;;;;4.78;3.90;;;;;;;;;;3542804;39;107237;-58
2021/07/28 06:46:27;;;;;;;4.55;3.80;;;;;;;;;;3544504;39;108260;-57
2021/07/28 06:48:54;;;;;;;7.85;5.30;;;;;;;;;;3543345;39;105832;-54
2021/07/28 06:51:21;;;;;;;6.28;4.85;;;;;;;;;;3543732;39;105241;-54
2021/07/28 06:53:49;;;;;;;7.60;4.97;;;;;;;;;;3543640;39;106911;-57
2021/07/28 06:56:17;;;;;;;8.40;5.28;;;;;;;;;;3545734;39;108531;-54
2021/07/28 06:58:45;;;;;;;8.18;5.20;;;;;;;;;;3546386;39;105703;-56
2021/07/28 07:01:12;;;;;;;6.72;4.90;;;;;;;;;;3534979;39;105448;-54
2021/07/28 07:03:40;;;;;;;5.80;4.63;;;;;;;;;;3550364;39;106856;-55
2021/07/28 07:06:23;;;;;;;6.32;4.70;;;;;;;;;;3549891;39;107793;-53
2021/07/28 07:08:50;;;;;;;5.70;4.47;;;;;;;;;;3549798;39;105454;-55
2021/07/28 07:11:17;;;;;;;5.65;4.50;;;;;;;;;;3550028;39;105312;-54
2021/07/28 07:13:44;;;;;;;6.15;4.15;;;;;;;;;;3549537;39;106935;-56
2021/07/28 07:16:11;;;;;;;5.93;4.65;;;;;;;;;;3549783;39;107809;-52
2021/07/28 07:18:38;;;;;;;4.63;4.00;;;;;;;;;;3550232;39;105315;-53
2021/07/28 07:21:05;;;;;;;5.80;4.22;;;;;;;;;;3549642;39;105483;-53
2021/07/28 07:23:32;;;;;;;5.75;4.45;;;;;;;;;;3549833;39;106826;-52
2021/07/28 07:25:58;;;;;;;4.90;4.40;;;;;;;;;;3549886;39;108000;-54
2021/07/28 07:28:26;;;;;;;5.18;4.20;;;;;;;;;;3550009;39;105349;-52
2021/07/28 07:30:53;;;;;;;4.65;3.83;;;;;;;;;;3550093;39;105315;-53
2021/07/28 07:36:10;;;;;;;5.65;4.35;;;;;;;;;;3549675;39;107431;-51
2021/07/28 07:38:38;;;;;;;4.20;3.78;;;;;;;;;;3550210;39;105294;-53
2021/07/28 07:41:05;;;;;;;5.03;4.10;;;;;;;;;;3549523;39;105683;-53
2021/07/28 07:43:33;;;;;;;5.15;4.13;;;;;;;;;;3549578;39;106899;-55
2021/07/28 07:46:01;;;;;;;4.13;3.72;;;;;;;;;;3549801;39;108350;-52
2021/07/28 07:48:28;;;;;;;4.13;3.70;;;;;;;;;;3549902;39;105491;-54
2021/07/28 07:50:55;;;;;;;4.55;4.00;;;;;;;;;;3549861;39;105367;-52
2021/07/28 07:53:22;;;;;;;5.22;4.07;;;;;;;;;;3549750;39;106876;-52
2021/07/28 07:55:49;;;;;;;7.43;4.45;;;;;;;;;;3549456;39;107522;-54
2021/07/28 07:58:16;;;;;;;5.05;4.43;;;;;;;;;;3549575;39;105393;-52
2021/07/28 08:00:43;;;;;;;4.85;4.13;;;;;;;;;;3549949;39;105608;-52
2021/07/28 08:03:10;;;;;;;4.43;3.72;;;;;;;;;;3549551;39;107070;-53
2021/07/28 08:05:37;;;;;;;4.22;3.80;;;;;;;;;;3549603;39;107642;-53
2021/07/28 08:08:04;;;;;;;4.88;3.78;;;;;;;;;;3549556;39;105398;-54
2021/07/28 08:10:31;;;;;;;4.18;3.78;;;;;;;;;;3549595;39;105605;-52
2021/07/28 08:12:58;;;;;;;4.68;3.78;;;;;;;;;;3549467;39;106968;-51
2021/07/28 08:15:25;;;;;;;4.82;4.28;;;;;;;;;;3549537;39;107520;-52
2021/07/28 08:17:52;;;;;;;4.65;3.88;;;;;;;;;;3549405;39;105592;-51
2021/07/28 08:20:19;;;;;;;3.92;3.53;;;;;;;;;;3549692;39;105314;-52
2021/07/28 08:22:46;;;;;;;4.78;3.75;;;;;;;;;;3540172;39;107180;-54
2021/07/28 08:25:13;;;;;;;4.65;3.85;;;;;;;;;;3549859;39;107432;-51
2021/07/28 08:27:40;;;;;;;5.55;3.80;;;;;;;;;;3549493;39;105311;-52
2021/07/28 08:30:07;;;;;;;5.10;3.78;;;;;;;;;;3549685;39;105432;-51
2021/07/28 08:32:34;;;;;;;4.65;3.75;;;;;;;;;;3549348;39;106886;-52
2021/07/28 08:35:01;;;;;;;3.92;3.53;;;;;;;;;;3549869;39;107487;-52
2021/07/28 08:37:28;;;;;;;4.57;3.45;;;;;;;;;;3549379;39;105311;-53
2021/07/28 08:39:56;;;;;;;4.07;3.70;;;;;;;;;;3549539;39;105506;-50
2021/07/28 08:42:27;;;;;;;4.13;3.42;;;;;;;;;;3549176;39;107454;-51
2021/07/28 08:44:54;;;;;;;5.65;4.00;;;;;;;;;;3549621;39;108049;-56
2021/07/28 08:47:22;;;;;;;4.80;3.50;;;;;;;;;;3549308;39;105284;-54
2021/07/28 08:49:52;;;;;;;4.75;3.67;;;;;;;;;;3548859;39;105496;-52
2021/07/28 08:52:23;;;;;;;4.03;3.63;;;;;;;;;;3549314;39;107019;-53
2021/07/28 08:54:50;;;;;;;4.82;3.80;;;;;;;;;;3549486;39;107956;-53
2021/07/28 08:57:17;;;;;;;6.05;4.38;;;;;;;;;;3549469;39;105331;-54
2021/07/28 08:59:44;;;;;;;4.50;4.10;;;;;;;;;;3549898;39;105547;-53
2021/07/28 09:02:11;;;;;;;4.78;3.55;;;;;;;;;;3549530;39;107326;-51
2021/07/28 09:04:41;;;;;;;5.07;3.75;;;;;;;;;;3549195;39;107651;-52
2021/07/28 09:07:14;;;;;;;4.95;4.03;;;;;;;;;;3548767;39;105442;-54
2021/07/28 09:09:52;;;;;;;5.57;3.92;;;;;;;;;;3549848;39;105292;-52
2021/07/28 09:12:28;;;;;;;5.65;4.07;;;;;;;;;;3549086;39;107167;-54
2021/07/28 09:15:00;;;;;;;5.20;3.97;;;;;;;;;;3549609;39;107810;-54
2021/07/28 09:17:28;;;;;;;7.43;4.28;;;;;;;;;;3549324;39;105286;-55
2021/07/28 09:19:58;;;;;;;5.68;4.00;;;;;;;;;;3549233;39;105553;-54
2021/07/28 09:22:39;;;;;;;6.80;4.18;;;;;;;;;;3549333;39;107261;-53
2021/07/28 09:25:17;;;;;;;4.55;3.90;;;;;;;;;;3549145;39;107397;-53
2021/07/28 09:27:51;;;;;;;6.15;3.88;;;;;;;;;;3549344;39;105643;-54
2021/07/28 09:30:23;;;;;;;6.60;3.53;;;;;;;;;;3549491;39;105263;-52
2021/07/28 09:32:57;;;;;;;5.72;3.60;;;;;;;;;;3549194;39;106811;-54
2021/07/28 09:35:54;;;;;;;4.55;3.30;;;;;;;;;;3549416;39;107552;-52
2021/07/28 09:38:47;;;;;;;3.53;3.20;;;;;;;;;;3549219;39;105578;-53
2021/07/28 09:41:21;;;;;;;5.07;3.10;;;;;;;;;;3549467;39;105612;-55
2021/07/28 09:44:00;;;;;;;4.40;3.50;;;;;;;;;;3549272;39;106982;-54
2021/07/28 09:46:38;;;;;;;4.03;3.33;;;;;;;;;;3540106;39;107503;-52
2021/07/28 09:49:09;;;;;;;3.47;3.00;;;;;;;;;;3549064;39;105388;-55
2021/07/28 09:51:38;;;;;;;5.97;3.40;;;;;;;;;;3549434;39;105225;-53
2021/07/28 09:54:08;;;;;;;3.95;3.25;;;;;;;;;;3549335;39;106922;-53
2021/07/28 09:56:45;;;;;;;5.55;3.40;;;;;;;;;;3549073;39;107543;-55
2021/07/28 09:59:13;;;;;;;3.53;3.08;;;;;;;;;;3549345;39;105542;-52
2021/07/28 10:01:42;;;;;;;3.72;3.28;;;;;;;;;;3549016;39;105350;-56
2021/07/28 10:04:12;;;;;;;4.80;3.42;;;;;;;;;;3549033;39;106298;-53
2021/07/28 10:06:40;;;;;;;4.32;3.20;;;;;;;;;;3548918;39;107538;-54
2021/07/28 10:09:12;;;;;;;3.40;3.10;;;;;;;;;;3548904;39;105323;-51
2021/07/28 10:11:42;;;;;;;4.55;2.95;;;;;;;;;;3549209;39;105398;-55
2021/07/28 10:14:10;;;;;;;3.23;2.63;;;;;;;;;;3548376;39;107210;-54
2021/07/28 10:16:37;;;;;;;3.80;2.95;;;;;;;;;;3548807;39;107592;-54
2021/07/28 10:19:05;;;;;;;3.85;3.00;;;;;;;;;;3550125;39;105385;-56
2021/07/28 10:21:49;;;;;;;4.22;2.80;;;;;;;;;;3550403;39;105238;-55
2021/07/28 10:24:16;;;;;;;6.13;3.50;;;;;;;;;;3549991;39;107179;-53
2021/07/28 10:26:45;;;;;;;3.53;2.92;;;;;;;;;;3550470;39;108108;-52
2021/07/28 10:29:15;;;;;;;3.65;3.17;;;;;;;;;;3550064;39;105437;-52
2021/07/28 10:31:53;;;;;;;3.90;2.88;;;;;;;;;;3550213;39;105398;-53
2021/07/28 10:34:34;;;;;;;4.05;2.95;;;;;;;;;;3550222;39;106843;-53
2021/07/28 10:37:07;;;;;;;3.60;3.30;;;;;;;;;;3550052;39;107522;-54
2021/07/28 10:39:39;;;;;;;3.45;2.78;;;;;;;;;;3541065;39;105329;-54
2021/07/28 10:42:13;;;;;;;3.75;2.90;;;;;;;;;;3549987;39;105311;-52
2021/07/28 10:45:02;;;;;;;3.58;2.90;;;;;;;;;;3550011;39;106987;-53
2021/07/28 10:47:45;;;;;;;3.22;2.90;;;;;;;;;;3550297;39;108191;-52
2021/07/28 10:50:30;;;;;;;3.50;2.78;;;;;;;;;;3550092;39;105468;-52
2021/07/28 10:53:04;;;;;;;3.60;2.63;;;;;;;;;;3549880;39;105420;-55
2021/07/28 10:55:31;;;;;;;3.78;3.08;;;;;;;;;;3549855;39;108011;-54
2021/07/28 10:58:10;;;;;;;3.22;2.90;;;;;;;;;;3549964;39;107467;-54
2021/07/28 11:00:43;;;;;;;4.07;2.83;;;;;;;;;;3550312;39;105604;-51
2021/07/28 11:03:20;;;;;;;3.70;2.95;;;;;;;;;;3549962;39;105358;-53
2021/07/28 11:05:52;;;;;;;4.80;3.13;;;;;;;;;;3544854;39;106765;-56
2021/07/28 11:08:20;;;;;;;3.58;2.92;;;;;;;;;;3540204;39;107545;-54
2021/07/28 11:11:00;;;;;;;5.28;2.90;;;;;;;;;;3539981;39;105733;-55
2021/07/28 11:13:33;;;;;;;3.92;3.00;;;;;;;;;;3539847;39;105719;-53
2021/07/28 11:16:04;;;;;;;4.72;3.20;;;;;;;;;;3539834;39;106752;-52
2021/07/28 11:18:49;;;;;;;5.22;3.40;;;;;;;;;;3540040;39;107763;-56
2021/07/28 11:21:21;;;;;;;4.22;3.03;;;;;;;;;;3539943;39;105518;-51
2021/07/28 11:23:53;;;;;;;5.43;3.00;;;;;;;;;;3540095;39;105568;-56
2021/07/28 11:26:36;;;;;;;3.13;2.70;;;;;;;;;;3539482;39;106760;-55
2021/07/28 11:29:09;;;;;;;4.93;3.25;;;;;;;;;;3539650;39;107566;-53
2021/07/28 11:31:42;;;;;;;3.70;3.30;;;;;;;;;;3539696;39;105479;-54
2021/07/28 11:34:11;;;;;;;4.03;3.10;;;;;;;;;;3539995;39;105724;-54
2021/07/28 11:36:39;;;;;;;3.65;3.20;;;;;;;;;;3539730;39;106935;-52
2021/07/28 11:39:18;;;;;;;3.05;2.70;;;;;;;;;;3539798;39;107111;-54
2021/07/28 11:41:48;;;;;;;3.10;2.80;;;;;;;;;;3540164;39;105650;-52
2021/07/28 11:44:16;;;;;;;4.05;2.83;;;;;;;;;;3540223;39;105270;-52
2021/07/28 11:46:53;;;;;;;3.65;2.92;;;;;;;;;;3539835;39;107422;-54
2021/07/28 11:49:25;;;;;;;6.85;3.17;;;;;;;;;;3539588;39;107492;-55
2021/07/28 11:51:58;;;;;;;4.88;3.33;;;;;;;;;;3539944;39;105156;-54
2021/07/28 11:54:25;;;;;;;5.35;3.45;;;;;;;;;;3539709;39;105176;-56
2021/07/28 11:56:53;;;;;;;5.00;3.47;;;;;;;;;;3539596;39;106869;-56
2021/07/28 11:59:29;;;;;;;4.32;3.00;;;;;;;;;;3539644;39;107835;-54
2021/07/28 12:01:58;;;;;;;4.07;2.80;;;;;;;;;;3539623;39;105398;-54
2021/07/28 12:04:30;;;;;;;3.70;3.00;;;;;;;;;;3539792;39;105347;-55
2021/07/28 12:07:14;;;;;;;4.45;3.08;;;;;;;;;;3539888;39;108591;-53
2021/07/28 12:09:55;;;;;;;3.50;2.83;;;;;;;;;;3539587;39;107505;-52
2021/07/28 12:12:24;;;;;;;4.53;2.83;;;;;;;;;;3539716;39;105604;-52
2021/07/28 12:15:10;;;;;;;3.80;2.87;;;;;;;;;;3530364;39;105588;-54
2021/07/28 12:17:49;;;;;;;3.25;2.33;;;;;;;;;;3539476;39;106845;-52
2021/07/28 12:20:15;;;;;;;3.83;2.70;;;;;;;;;;3539893;39;107658;-53
2021/07/28 12:22:44;;;;;;;4.88;2.28;;;;;;;;;;3530671;39;105179;-56
2021/07/28 12:25:11;;;;;;;4.60;2.85;;;;;;;;;;3540123;39;105279;-56
2021/07/28 12:27:57;;;;;;;3.58;2.58;;;;;;;;;;3539996;39;107013;-56
2021/07/28 12:30:35;;;;;;;2.92;2.10;;;;;;;;;;3539805;39;107154;-56
2021/07/28 12:33:15;;;;;;;4.10;2.72;;;;;;;;;;3540303;39;105489;-56
2021/07/28 12:35:54;;;;;;;5.80;2.45;;;;;;;;;;3539978;39;105241;-55
2021/07/28 12:38:23;;;;;;;2.95;2.30;;;;;;;;;;3540218;39;107182;-55
2021/07/28 12:41:02;;;;;;;2.97;2.30;;;;;;;;;;3539441;39;107646;-53
2021/07/28 12:43:30;;;;;;;3.75;2.05;;;;;;;;;;3539373;39;105563;-54
2021/07/28 12:46:01;;;;;;;3.97;2.30;;;;;;;;;;3540016;39;105388;-54
2021/07/28 12:48:30;;;;;;;3.05;2.25;;;;;;;;;;3539849;39;107433;-53
2021/07/28 12:51:01;;;;;;;3.78;2.25;;;;;;;;;;3539705;39;107416;-55
2021/07/28 12:53:30;;;;;;;2.90;2.33;;;;;;;;;;3540041;39;105372;-55
2021/07/28 12:55:58;;;;;;;4.45;2.40;;;;;;;;;;3539860;39;105152;-53
2021/07/28 12:58:26;;;;;;;5.15;2.40;;;;;;;;;;3539678;39;106845;-56
2021/07/28 13:00:55;;;;;;;2.65;2.00;;;;;;;;;;3539707;39;107511;-52
2021/07/28 13:03:27;;;;;;;2.83;2.10;;;;;;;;;;3539941;39;105336;-54
2021/07/28 13:06:08;;;;;;;4.00;2.30;;;;;;;;;;3540041;39;105202;-54
2021/07/28 13:08:35;;;;;;;2.57;1.83;;;;;;;;;;3541293;39;106860;-53
2021/07/28 13:11:02;;;;;;;3.17;2.10;;;;;;;;;;3541059;39;107463;-55
2021/07/28 13:13:30;;;;;;;2.28;1.83;;;;;;;;;;3541865;39;105459;-56
2021/07/28 13:15:58;;;;;;;3.70;2.00;;;;;;;;;;3541150;39;105462;-55
2021/07/28 13:18:24;;;;;;;3.33;2.08;;;;;;;;;;3543575;39;107135;-55
2021/07/28 13:20:53;;;;;;;2.60;2.10;;;;;;;;;;3540352;39;107171;-56
2021/07/28 13:23:28;;;;;;;3.88;2.08;;;;;;;;;;3530197;39;105769;-54
2021/07/28 13:26:01;;;;;;;3.40;1.92;;;;;;;;;;3539313;39;105389;-56
2021/07/28 13:28:30;;;;;;;3.83;2.17;;;;;;;;;;3544433;39;106278;-56
2021/07/28 13:30:57;;;;;;;3.28;2.13;;;;;;;;;;3546558;39;107470;-55
2021/07/28 13:33:26;;;;;;;4.90;2.13;;;;;;;;;;3549479;39;105178;-55
2021/07/28 13:35:53;;;;;;;4.40;2.60;;;;;;;;;;3541942;39;105423;-56
2021/07/28 13:38:20;;;;;;;3.40;2.20;;;;;;;;;;3539604;39;106828;-54
2021/07/28 13:40:47;;;;;;;4.78;2.63;;;;;;;;;;3540886;39;107442;-54
2021/07/28 13:43:14;;;;;;;4.80;2.42;;;;;;;;;;3539413;39;105226;-52
2021/07/28 13:45:41;;;;;;;6.72;2.80;;;;;;;;;;3541773;39;105830;-52
2021/07/28 13:48:09;;;;;;;5.53;2.50;;;;;;;;;;3540070;39;106800;-53
2021/07/28 13:50:36;;;;;;;4.75;2.80;;;;;;;;;;3549404;39;107501;-56
2021/07/28 13:53:05;;;;;;;4.65;2.63;;;;;;;;;;3547093;39;105409;-57
2021/07/28 13:55:33;;;;;;;4.20;2.30;;;;;;;;;;3542227;39;105416;-55
2021/07/28 13:58:00;;;;;;;4.35;2.38;;;;;;;;;;3544252;39;106824;-54
2021/07/28 14:00:27;;;;;;;4.30;2.38;;;;;;;;;;3542420;39;108227;-54
2021/07/28 14:02:54;;;;;;;3.90;2.08;;;;;;;;;;3543424;39;105246;-56
2021/07/28 14:05:21;;;;;;;3.45;2.58;;;;;;;;;;3549518;39;105196;-55
2021/07/28 14:07:50;;;;;;;4.05;2.28;;;;;;;;;;3541169;39;106443;-52
2021/07/28 14:10:17;;;;;;;4.00;2.22;;;;;;;;;;3539409;39;107594;-53
2021/07/28 14:12:44;;;;;;;3.05;2.20;;;;;;;;;;3539687;39;105443;-53
2021/07/28 14:15:11;;;;;;;4.78;2.67;;;;;;;;;;3542946;39;106965;-52
2021/07/28 14:17:38;;;;;;;3.55;2.38;;;;;;;;;;3539308;39;107139;-55
2021/07/28 14:20:06;;;;;;;4.65;2.33;;;;;;;;;;3539462;39;107829;-55
2021/07/28 14:22:34;;;;;;;4.63;2.38;;;;;;;;;;3547778;39;107397;-55
2021/07/28 14:25:03;;;;;;;3.00;1.92;;;;;;;;;;3547850;39;105835;-55
2021/07/28 14:27:31;;;;;;;4.47;2.15;;;;;;;;;;3545725;39;106369;-52
2021/07/28 14:29:58;;;;;;;3.25;2.00;;;;;;;;;;3543205;39;107853;-54
2021/07/28 14:32:28;;;;;;;3.25;2.20;;;;;;;;;;3545273;39;105586;-52
2021/07/28 14:34:55;;;;;;;5.13;2.00;;;;;;;;;;3541270;39;105550;-52
2021/07/28 14:37:23;;;;;;;3.70;1.80;;;;;;;;;;3547314;39;106890;-53
2021/07/28 14:39:50;;;;;;;3.03;1.85;;;;;;;;;;3546707;39;108292;-54
2021/07/28 14:42:17;;;;;;;4.28;2.40;;;;;;;;;;3546729;39;105716;-54
2021/07/28 14:44:44;;;;;;;4.18;2.00;;;;;;;;;;3541673;39;105683;-53